sensor_id;sensor_type;location;lat;lon;timestamp;P1;durP1;ratioP1;P2;durP2;ratioP2
8478;SDS011;4276;49.354;6.804;2022-12-07T00:01:37;9.88;;;8.88;;
8478;SDS011;4276;49.354;6.804;2022-12-07T00:04:05;9.85;;;8.85;;
8478;SDS011;4276;49.354;6.804;2022-12-07T00:06:33;9.05;;;8.23;;
8478;SDS011;4276;49.354;6.804;2022-12-07T00:09:01;9.70;;;8.55;;
8478;SDS011;4276;49.354;6.804;2022-12-07T00:11:29;9.57;;;8.68;;
8478;SDS011;4276;49.354;6.804;2022-12-07T00:13:57;8.52;;;7.75;;
8478;SDS011;4276;49.354;6.804;2022-12-07T00:16:25;8.90;;;8.13;;
8478;SDS011;4276;49.354;6.804;2022-12-07T00:18:53;8.45;;;7.65;;
8478;SDS011;4276;49.354;6.804;2022-12-07T00:21:22;8.63;;;7.82;;
8478;SDS011;4276;49.354;6.804;2022-12-07T00:23:56;9.10;;;8.18;;
8478;SDS011;4276;49.354;6.804;2022-12-07T00:26:27;9.95;;;8.93;;
8478;SDS011;4276;49.354;6.804;2022-12-07T00:28:56;10.45;;;8.55;;
8478;SDS011;4276;49.354;6.804;2022-12-07T00:31:26;9.85;;;8.95;;
8478;SDS011;4276;49.354;6.804;2022-12-07T00:33:55;9.90;;;8.85;;
8478;SDS011;4276;49.354;6.804;2022-12-07T00:36:22;10.35;;;8.88;;
8478;SDS011;4276;49.354;6.804;2022-12-07T00:38:53;12.48;;;9.32;;
8478;SDS011;4276;49.354;6.804;2022-12-07T00:41:21;11.70;;;9.75;;
8478;SDS011;4276;49.354;6.804;2022-12-07T00:43:49;11.23;;;9.13;;
8478;SDS011;4276;49.354;6.804;2022-12-07T00:46:16;11.70;;;9.63;;
8478;SDS011;4276;49.354;6.804;2022-12-07T00:48:44;9.73;;;8.52;;
8478;SDS011;4276;49.354;6.804;2022-12-07T00:51:11;9.20;;;8.27;;
8478;SDS011;4276;49.354;6.804;2022-12-07T00:53:38;9.55;;;8.55;;
8478;SDS011;4276;49.354;6.804;2022-12-07T00:56:07;9.60;;;8.60;;
8478;SDS011;4276;49.354;6.804;2022-12-07T00:58:35;8.98;;;8.07;;
8478;SDS011;4276;49.354;6.804;2022-12-07T01:01:02;9.77;;;8.48;;
8478;SDS011;4276;49.354;6.804;2022-12-07T01:03:29;10.00;;;9.00;;
8478;SDS011;4276;49.354;6.804;2022-12-07T01:05:59;9.25;;;8.35;;
8478;SDS011;4276;49.354;6.804;2022-12-07T01:08:26;10.52;;;9.45;;
8478;SDS011;4276;49.354;6.804;2022-12-07T01:10:58;9.85;;;8.85;;
8478;SDS011;4276;49.354;6.804;2022-12-07T01:13:29;10.18;;;9.18;;
8478;SDS011;4276;49.354;6.804;2022-12-07T01:15:56;9.57;;;8.68;;
8478;SDS011;4276;49.354;6.804;2022-12-07T01:18:24;10.35;;;9.30;;
8478;SDS011;4276;49.354;6.804;2022-12-07T01:20:57;9.95;;;8.90;;
8478;SDS011;4276;49.354;6.804;2022-12-07T01:23:25;9.63;;;7.88;;
8478;SDS011;4276;49.354;6.804;2022-12-07T01:25:57;9.40;;;8.55;;
8478;SDS011;4276;49.354;6.804;2022-12-07T01:28:25;9.68;;;8.27;;
8478;SDS011;4276;49.354;6.804;2022-12-07T01:30:56;9.27;;;8.40;;
8478;SDS011;4276;49.354;6.804;2022-12-07T01:33:30;9.82;;;8.82;;
8478;SDS011;4276;49.354;6.804;2022-12-07T01:38:32;9.48;;;8.57;;
8478;SDS011;4276;49.354;6.804;2022-12-07T01:40:59;9.73;;;8.70;;
8478;SDS011;4276;49.354;6.804;2022-12-07T01:43:27;8.75;;;7.95;;
8478;SDS011;4276;49.354;6.804;2022-12-07T01:45:55;9.50;;;8.50;;
8478;SDS011;4276;49.354;6.804;2022-12-07T01:48:24;9.57;;;8.75;;
8478;SDS011;4276;49.354;6.804;2022-12-07T01:50:54;10.73;;;9.63;;
8478;SDS011;4276;49.354;6.804;2022-12-07T01:53:24;10.73;;;8.93;;
8478;SDS011;4276;49.354;6.804;2022-12-07T01:55:52;9.77;;;8.63;;
8478;SDS011;4276;49.354;6.804;2022-12-07T01:58:19;10.68;;;9.57;;
8478;SDS011;4276;49.354;6.804;2022-12-07T02:00:45;10.73;;;9.57;;
8478;SDS011;4276;49.354;6.804;2022-12-07T02:03:22;9.85;;;8.90;;
8478;SDS011;4276;49.354;6.804;2022-12-07T02:05:51;10.15;;;9.15;;
8478;SDS011;4276;49.354;6.804;2022-12-07T02:08:19;10.05;;;9.05;;
8478;SDS011;4276;49.354;6.804;2022-12-07T02:10:46;10.60;;;9.50;;
8478;SDS011;4276;49.354;6.804;2022-12-07T02:21:07;10.00;;;9.00;;
8478;SDS011;4276;49.354;6.804;2022-12-07T02:23:40;10.75;;;9.65;;
8478;SDS011;4276;49.354;6.804;2022-12-07T02:29:14;12.35;;;9.88;;
8478;SDS011;4276;49.354;6.804;2022-12-07T02:31:46;12.88;;;10.35;;
8478;SDS011;4276;49.354;6.804;2022-12-07T02:34:28;11.25;;;10.05;;
8478;SDS011;4276;49.354;6.804;2022-12-07T02:37:00;12.85;;;10.07;;
8478;SDS011;4276;49.354;6.804;2022-12-07T02:42:18;11.45;;;10.20;;
8478;SDS011;4276;49.354;6.804;2022-12-07T02:44:49;10.93;;;9.82;;
8478;SDS011;4276;49.354;6.804;2022-12-07T02:47:16;11.75;;;9.43;;
8478;SDS011;4276;49.354;6.804;2022-12-07T02:49:43;11.60;;;10.40;;
8478;SDS011;4276;49.354;6.804;2022-12-07T02:52:10;10.98;;;9.93;;
8478;SDS011;4276;49.354;6.804;2022-12-07T02:54:36;11.65;;;10.38;;
8478;SDS011;4276;49.354;6.804;2022-12-07T03:00:08;11.90;;;10.55;;
8478;SDS011;4276;49.354;6.804;2022-12-07T03:15:54;12.43;;;10.95;;
8478;SDS011;4276;49.354;6.804;2022-12-07T03:18:43;13.20;;;11.30;;
8478;SDS011;4276;49.354;6.804;2022-12-07T03:21:14;12.07;;;10.80;;
8478;SDS011;4276;49.354;6.804;2022-12-07T03:23:44;13.80;;;11.45;;
8478;SDS011;4276;49.354;6.804;2022-12-07T03:26:13;14.75;;;12.48;;
8478;SDS011;4276;49.354;6.804;2022-12-07T03:28:43;12.63;;;10.88;;
8478;SDS011;4276;49.354;6.804;2022-12-07T03:31:19;13.07;;;11.43;;
8478;SDS011;4276;49.354;6.804;2022-12-07T03:33:50;11.52;;;10.35;;
8478;SDS011;4276;49.354;6.804;2022-12-07T03:36:32;11.90;;;9.93;;
8478;SDS011;4276;49.354;6.804;2022-12-07T03:39:03;10.05;;;8.90;;
8478;SDS011;4276;49.354;6.804;2022-12-07T03:41:35;10.65;;;9.55;;
8478;SDS011;4276;49.354;6.804;2022-12-07T03:44:10;11.88;;;9.73;;
8478;SDS011;4276;49.354;6.804;2022-12-07T03:54:44;12.15;;;10.95;;
8478;SDS011;4276;49.354;6.804;2022-12-07T03:57:15;14.77;;;12.15;;
8478;SDS011;4276;49.354;6.804;2022-12-07T03:59:42;12.23;;;10.80;;
8478;SDS011;4276;49.354;6.804;2022-12-07T04:02:10;12.68;;;10.82;;
8478;SDS011;4276;49.354;6.804;2022-12-07T04:04:37;14.50;;;11.25;;
8478;SDS011;4276;49.354;6.804;2022-12-07T04:07:04;12.48;;;11.02;;
8478;SDS011;4276;49.354;6.804;2022-12-07T04:09:31;12.65;;;9.95;;
8478;SDS011;4276;49.354;6.804;2022-12-07T04:11:57;11.13;;;10.02;;
8478;SDS011;4276;49.354;6.804;2022-12-07T04:14:24;10.75;;;9.73;;
8478;SDS011;4276;49.354;6.804;2022-12-07T04:16:52;10.90;;;9.75;;
8478;SDS011;4276;49.354;6.804;2022-12-07T04:19:20;11.10;;;10.00;;
8478;SDS011;4276;49.354;6.804;2022-12-07T04:21:48;11.57;;;9.65;;
8478;SDS011;4276;49.354;6.804;2022-12-07T04:24:15;10.30;;;9.27;;
8478;SDS011;4276;49.354;6.804;2022-12-07T04:26:42;11.27;;;10.07;;
8478;SDS011;4276;49.354;6.804;2022-12-07T04:29:09;11.38;;;10.18;;
8478;SDS011;4276;49.354;6.804;2022-12-07T04:31:36;11.70;;;10.60;;
8478;SDS011;4276;49.354;6.804;2022-12-07T04:34:03;12.30;;;10.82;;
8478;SDS011;4276;49.354;6.804;2022-12-07T04:36:30;12.02;;;10.70;;
8478;SDS011;4276;49.354;6.804;2022-12-07T04:38:59;12.05;;;10.77;;
8478;SDS011;4276;49.354;6.804;2022-12-07T04:41:27;13.48;;;12.05;;
8478;SDS011;4276;49.354;6.804;2022-12-07T04:43:57;12.50;;;10.95;;
8478;SDS011;4276;49.354;6.804;2022-12-07T04:46:28;12.73;;;11.13;;
8478;SDS011;4276;49.354;6.804;2022-12-07T04:48:57;12.15;;;10.90;;
8478;SDS011;4276;49.354;6.804;2022-12-07T04:51:27;12.50;;;11.27;;
8478;SDS011;4276;49.354;6.804;2022-12-07T04:53:55;12.50;;;10.38;;
8478;SDS011;4276;49.354;6.804;2022-12-07T04:56:22;12.90;;;11.32;;
8478;SDS011;4276;49.354;6.804;2022-12-07T04:58:49;11.70;;;10.50;;
8478;SDS011;4276;49.354;6.804;2022-12-07T05:01:17;12.05;;;10.40;;
8478;SDS011;4276;49.354;6.804;2022-12-07T05:03:44;12.18;;;10.27;;
8478;SDS011;4276;49.354;6.804;2022-12-07T05:06:11;14.40;;;10.73;;
8478;SDS011;4276;49.354;6.804;2022-12-07T05:08:39;11.80;;;9.98;;
8478;SDS011;4276;49.354;6.804;2022-12-07T05:11:06;12.38;;;10.40;;
8478;SDS011;4276;49.354;6.804;2022-12-07T05:13:34;12.40;;;10.75;;
8478;SDS011;4276;49.354;6.804;2022-12-07T05:16:01;13.13;;;9.93;;
8478;SDS011;4276;49.354;6.804;2022-12-07T05:18:28;14.45;;;11.25;;
8478;SDS011;4276;49.354;6.804;2022-12-07T05:20:54;12.05;;;10.77;;
8478;SDS011;4276;49.354;6.804;2022-12-07T05:23:24;11.90;;;10.63;;
8478;SDS011;4276;49.354;6.804;2022-12-07T05:25:50;13.45;;;11.77;;
8478;SDS011;4276;49.354;6.804;2022-12-07T05:28:17;13.43;;;11.98;;
8478;SDS011;4276;49.354;6.804;2022-12-07T05:30:43;13.55;;;11.75;;
8478;SDS011;4276;49.354;6.804;2022-12-07T05:33:09;16.25;;;13.60;;
8478;SDS011;4276;49.354;6.804;2022-12-07T05:35:36;16.38;;;13.18;;
8478;SDS011;4276;49.354;6.804;2022-12-07T05:38:03;14.85;;;11.57;;
8478;SDS011;4276;49.354;6.804;2022-12-07T05:40:30;13.02;;;11.73;;
8478;SDS011;4276;49.354;6.804;2022-12-07T05:42:56;14.85;;;12.07;;
8478;SDS011;4276;49.354;6.804;2022-12-07T05:45:29;14.07;;;12.00;;
8478;SDS011;4276;49.354;6.804;2022-12-07T05:47:56;15.02;;;12.52;;
8478;SDS011;4276;49.354;6.804;2022-12-07T05:50:22;15.02;;;12.07;;
8478;SDS011;4276;49.354;6.804;2022-12-07T05:52:49;13.30;;;12.00;;
8478;SDS011;4276;49.354;6.804;2022-12-07T05:55:15;15.25;;;12.00;;
8478;SDS011;4276;49.354;6.804;2022-12-07T05:57:42;13.82;;;12.18;;
8478;SDS011;4276;49.354;6.804;2022-12-07T06:00:28;15.95;;;12.88;;
8478;SDS011;4276;49.354;6.804;2022-12-07T06:02:55;14.85;;;13.20;;
8478;SDS011;4276;49.354;6.804;2022-12-07T06:05:21;14.57;;;13.00;;
8478;SDS011;4276;49.354;6.804;2022-12-07T06:07:48;18.67;;;14.13;;
8478;SDS011;4276;49.354;6.804;2022-12-07T06:10:14;14.77;;;13.27;;
8478;SDS011;4276;49.354;6.804;2022-12-07T06:12:41;19.25;;;14.98;;
8478;SDS011;4276;49.354;6.804;2022-12-07T06:15:09;17.15;;;13.93;;
8478;SDS011;4276;49.354;6.804;2022-12-07T06:17:36;14.85;;;13.30;;
8478;SDS011;4276;49.354;6.804;2022-12-07T06:20:03;16.40;;;14.10;;
8478;SDS011;4276;49.354;6.804;2022-12-07T06:22:30;17.15;;;14.30;;
8478;SDS011;4276;49.354;6.804;2022-12-07T06:24:56;16.65;;;14.85;;
8478;SDS011;4276;49.354;6.804;2022-12-07T06:27:23;20.08;;;15.45;;
8478;SDS011;4276;49.354;6.804;2022-12-07T06:29:49;16.92;;;15.13;;
8478;SDS011;4276;49.354;6.804;2022-12-07T06:32:15;16.65;;;14.52;;
8478;SDS011;4276;49.354;6.804;2022-12-07T06:34:42;16.65;;;14.85;;
8478;SDS011;4276;49.354;6.804;2022-12-07T06:37:09;18.00;;;15.75;;
8478;SDS011;4276;49.354;6.804;2022-12-07T06:39:35;17.35;;;15.18;;
8478;SDS011;4276;49.354;6.804;2022-12-07T06:42:02;16.80;;;15.00;;
8478;SDS011;4276;49.354;6.804;2022-12-07T06:44:28;18.23;;;14.90;;
8478;SDS011;4276;49.354;6.804;2022-12-07T06:46:54;16.48;;;14.57;;
8478;SDS011;4276;49.354;6.804;2022-12-07T06:49:41;17.42;;;14.65;;
8478;SDS011;4276;49.354;6.804;2022-12-07T06:52:07;20.60;;;16.08;;
8478;SDS011;4276;49.354;6.804;2022-12-07T06:54:34;17.35;;;15.52;;
8478;SDS011;4276;49.354;6.804;2022-12-07T06:57:03;16.98;;;14.98;;
8478;SDS011;4276;49.354;6.804;2022-12-07T06:59:29;16.70;;;14.90;;
8478;SDS011;4276;49.354;6.804;2022-12-07T07:01:56;15.27;;;13.68;;
8478;SDS011;4276;49.354;6.804;2022-12-07T07:04:22;17.35;;;14.25;;
8478;SDS011;4276;49.354;6.804;2022-12-07T07:06:49;17.17;;;14.40;;
8478;SDS011;4276;49.354;6.804;2022-12-07T07:09:23;16.73;;;13.65;;
8478;SDS011;4276;49.354;6.804;2022-12-07T07:11:49;18.58;;;14.73;;
8478;SDS011;4276;49.354;6.804;2022-12-07T07:14:16;18.42;;;14.55;;
8478;SDS011;4276;49.354;6.804;2022-12-07T07:16:45;16.58;;;14.32;;
8478;SDS011;4276;49.354;6.804;2022-12-07T07:19:11;16.58;;;13.25;;
8478;SDS011;4276;49.354;6.804;2022-12-07T07:21:37;14.77;;;12.60;;
8478;SDS011;4276;49.354;6.804;2022-12-07T07:24:04;14.38;;;12.88;;
8478;SDS011;4276;49.354;6.804;2022-12-07T07:26:31;14.65;;;13.07;;
8478;SDS011;4276;49.354;6.804;2022-12-07T07:28:57;16.40;;;13.90;;
8478;SDS011;4276;49.354;6.804;2022-12-07T07:31:24;15.38;;;13.77;;
8478;SDS011;4276;49.354;6.804;2022-12-07T07:33:50;15.05;;;13.05;;
8478;SDS011;4276;49.354;6.804;2022-12-07T07:36:16;17.13;;;13.98;;
8478;SDS011;4276;49.354;6.804;2022-12-07T07:38:43;14.13;;;12.68;;
8478;SDS011;4276;49.354;6.804;2022-12-07T07:41:12;16.73;;;14.38;;
8478;SDS011;4276;49.354;6.804;2022-12-07T07:43:39;19.60;;;14.30;;
8478;SDS011;4276;49.354;6.804;2022-12-07T07:46:05;16.27;;;13.68;;
8478;SDS011;4276;49.354;6.804;2022-12-07T07:48:32;15.30;;;13.75;;
8478;SDS011;4276;49.354;6.804;2022-12-07T07:51:04;15.88;;;14.13;;
8478;SDS011;4276;49.354;6.804;2022-12-07T07:53:32;18.52;;;15.65;;
8478;SDS011;4276;49.354;6.804;2022-12-07T07:55:58;18.00;;;15.52;;
8478;SDS011;4276;49.354;6.804;2022-12-07T07:58:25;18.20;;;16.25;;
8478;SDS011;4276;49.354;6.804;2022-12-07T08:00:51;20.00;;;15.57;;
8478;SDS011;4276;49.354;6.804;2022-12-07T08:03:18;19.42;;;15.98;;
8478;SDS011;4276;49.354;6.804;2022-12-07T08:05:44;19.00;;;15.68;;
8478;SDS011;4276;49.354;6.804;2022-12-07T08:08:11;18.70;;;15.98;;
8478;SDS011;4276;49.354;6.804;2022-12-07T08:10:37;18.60;;;15.75;;
8478;SDS011;4276;49.354;6.804;2022-12-07T08:13:04;22.10;;;16.88;;
8478;SDS011;4276;49.354;6.804;2022-12-07T08:15:37;17.63;;;15.73;;
8478;SDS011;4276;49.354;6.804;2022-12-07T08:18:05;21.58;;;16.50;;
8478;SDS011;4276;49.354;6.804;2022-12-07T08:20:31;20.58;;;17.17;;
8478;SDS011;4276;49.354;6.804;2022-12-07T08:22:59;18.60;;;16.13;;
8478;SDS011;4276;49.354;6.804;2022-12-07T08:25:26;21.63;;;16.40;;
8478;SDS011;4276;49.354;6.804;2022-12-07T08:27:53;21.33;;;18.00;;
8478;SDS011;4276;49.354;6.804;2022-12-07T08:30:20;21.50;;;18.00;;
8478;SDS011;4276;49.354;6.804;2022-12-07T08:32:47;23.58;;;18.65;;
8478;SDS011;4276;49.354;6.804;2022-12-07T08:35:14;24.23;;;18.13;;
8478;SDS011;4276;49.354;6.804;2022-12-07T08:37:41;22.30;;;17.65;;
8478;SDS011;4276;49.354;6.804;2022-12-07T08:40:08;24.13;;;17.67;;
8478;SDS011;4276;49.354;6.804;2022-12-07T08:42:35;23.00;;;19.25;;
8478;SDS011;4276;49.354;6.804;2022-12-07T08:45:07;22.33;;;18.63;;
8478;SDS011;4276;49.354;6.804;2022-12-07T08:47:39;23.17;;;18.45;;
8478;SDS011;4276;49.354;6.804;2022-12-07T08:50:07;26.08;;;18.98;;
8478;SDS011;4276;49.354;6.804;2022-12-07T08:52:34;26.38;;;19.15;;
8478;SDS011;4276;49.354;6.804;2022-12-07T08:55:02;26.98;;;19.92;;
8478;SDS011;4276;49.354;6.804;2022-12-07T08:57:29;26.10;;;20.17;;
8478;SDS011;4276;49.354;6.804;2022-12-07T08:59:56;25.70;;;19.30;;
8478;SDS011;4276;49.354;6.804;2022-12-07T09:02:24;25.05;;;19.73;;
8478;SDS011;4276;49.354;6.804;2022-12-07T09:04:50;28.65;;;20.13;;
8478;SDS011;4276;49.354;6.804;2022-12-07T09:07:17;27.00;;;19.50;;
8478;SDS011;4276;49.354;6.804;2022-12-07T09:09:43;26.77;;;19.15;;
8478;SDS011;4276;49.354;6.804;2022-12-07T09:12:10;25.08;;;19.92;;
8478;SDS011;4276;49.354;6.804;2022-12-07T09:14:36;26.20;;;19.98;;
8478;SDS011;4276;49.354;6.804;2022-12-07T09:17:07;23.95;;;19.15;;
8478;SDS011;4276;49.354;6.804;2022-12-07T09:19:37;25.67;;;19.52;;
8478;SDS011;4276;49.354;6.804;2022-12-07T09:22:04;24.52;;;19.45;;
8478;SDS011;4276;49.354;6.804;2022-12-07T09:24:31;25.98;;;18.70;;
8478;SDS011;4276;49.354;6.804;2022-12-07T09:26:57;23.83;;;18.60;;
8478;SDS011;4276;49.354;6.804;2022-12-07T09:29:24;23.33;;;17.63;;
8478;SDS011;4276;49.354;6.804;2022-12-07T09:31:51;22.73;;;17.10;;
8478;SDS011;4276;49.354;6.804;2022-12-07T09:34:18;22.65;;;17.70;;
8478;SDS011;4276;49.354;6.804;2022-12-07T09:36:45;23.67;;;17.65;;
8478;SDS011;4276;49.354;6.804;2022-12-07T09:39:11;22.13;;;17.77;;
8478;SDS011;4276;49.354;6.804;2022-12-07T09:41:38;24.23;;;17.17;;
8478;SDS011;4276;49.354;6.804;2022-12-07T09:44:09;22.17;;;17.33;;
8478;SDS011;4276;49.354;6.804;2022-12-07T09:46:38;20.83;;;15.43;;
8478;SDS011;4276;49.354;6.804;2022-12-07T09:49:09;21.00;;;15.88;;
8478;SDS011;4276;49.354;6.804;2022-12-07T09:51:38;18.48;;;15.63;;
8478;SDS011;4276;49.354;6.804;2022-12-07T09:54:04;17.08;;;14.25;;
8478;SDS011;4276;49.354;6.804;2022-12-07T09:56:31;18.55;;;14.68;;
8478;SDS011;4276;49.354;6.804;2022-12-07T09:58:58;20.55;;;14.88;;
8478;SDS011;4276;49.354;6.804;2022-12-07T10:01:28;18.92;;;14.23;;
8478;SDS011;4276;49.354;6.804;2022-12-07T10:04:29;16.92;;;13.63;;
8478;SDS011;4276;49.354;6.804;2022-12-07T10:06:50;15.25;;;12.93;;
8478;SDS011;4276;49.354;6.804;2022-12-07T10:09:20;15.57;;;12.27;;
8478;SDS011;4276;49.354;6.804;2022-12-07T10:14:39;15.35;;;12.43;;
8478;SDS011;4276;49.354;6.804;2022-12-07T10:17:38;13.60;;;12.20;;
8478;SDS011;4276;49.354;6.804;2022-12-07T10:20:13;13.27;;;11.23;;
8478;SDS011;4276;49.354;6.804;2022-12-07T10:22:56;14.27;;;10.85;;
8478;SDS011;4276;49.354;6.804;2022-12-07T10:25:32;14.45;;;11.70;;
8478;SDS011;4276;49.354;6.804;2022-12-07T10:28:02;15.90;;;11.38;;
8478;SDS011;4276;49.354;6.804;2022-12-07T10:30:45;12.18;;;9.75;;
8478;SDS011;4276;49.354;6.804;2022-12-07T10:33:27;14.63;;;12.35;;
8478;SDS011;4276;49.354;6.804;2022-12-07T10:35:54;14.07;;;11.23;;
8478;SDS011;4276;49.354;6.804;2022-12-07T10:38:21;15.98;;;12.50;;
8478;SDS011;4276;49.354;6.804;2022-12-07T10:41:03;13.20;;;11.02;;
8478;SDS011;4276;49.354;6.804;2022-12-07T10:43:35;12.68;;;9.98;;
8478;SDS011;4276;49.354;6.804;2022-12-07T11:00:19;10.93;;;9.82;;
8478;SDS011;4276;49.354;6.804;2022-12-07T11:03:01;9.85;;;8.85;;
8478;SDS011;4276;49.354;6.804;2022-12-07T11:08:34;9.80;;;7.25;;
8478;SDS011;4276;49.354;6.804;2022-12-07T11:13:56;9.57;;;8.30;;
8478;SDS011;4276;49.354;6.804;2022-12-07T11:16:34;8.55;;;7.53;;
8478;SDS011;4276;49.354;6.804;2022-12-07T11:21:58;7.40;;;6.70;;
8478;SDS011;4276;49.354;6.804;2022-12-07T11:27:06;10.05;;;8.95;;
8478;SDS011;4276;49.354;6.804;2022-12-07T11:38:11;10.18;;;8.50;;
8478;SDS011;4276;49.354;6.804;2022-12-07T11:40:45;11.40;;;7.78;;
8478;SDS011;4276;49.354;6.804;2022-12-07T11:46:05;8.63;;;7.82;;
8478;SDS011;4276;49.354;6.804;2022-12-07T11:48:37;9.20;;;6.80;;
8478;SDS011;4276;49.354;6.804;2022-12-07T11:51:06;7.80;;;6.93;;
8478;SDS011;4276;49.354;6.804;2022-12-07T11:56:22;7.97;;;6.85;;
8478;SDS011;4276;49.354;6.804;2022-12-07T11:58:51;8.30;;;7.03;;
8478;SDS011;4276;49.354;6.804;2022-12-07T12:06:36;6.25;;;5.60;;
8478;SDS011;4276;49.354;6.804;2022-12-07T12:25:49;8.60;;;6.80;;
8478;SDS011;4276;49.354;6.804;2022-12-07T12:30:46;9.52;;;7.47;;
8478;SDS011;4276;49.354;6.804;2022-12-07T12:33:33;8.52;;;7.28;;
8478;SDS011;4276;49.354;6.804;2022-12-07T12:39:18;7.32;;;6.50;;
8478;SDS011;4276;49.354;6.804;2022-12-07T12:51:43;8.63;;;7.57;;
8478;SDS011;4276;49.354;6.804;2022-12-07T12:54:22;11.27;;;7.95;;
8478;SDS011;4276;49.354;6.804;2022-12-07T12:57:00;8.52;;;7.38;;
8478;SDS011;4276;49.354;6.804;2022-12-07T13:02:20;9.23;;;8.00;;
8478;SDS011;4276;49.354;6.804;2022-12-07T13:04:55;8.38;;;7.22;;
8478;SDS011;4276;49.354;6.804;2022-12-07T13:10:24;8.60;;;7.07;;
8478;SDS011;4276;49.354;6.804;2022-12-07T13:12:58;9.20;;;7.88;;
8478;SDS011;4276;49.354;6.804;2022-12-07T13:15:31;9.23;;;8.32;;
8478;SDS011;4276;49.354;6.804;2022-12-07T13:17:59;10.18;;;8.15;;
8478;SDS011;4276;49.354;6.804;2022-12-07T13:20:40;9.05;;;7.65;;
8478;SDS011;4276;49.354;6.804;2022-12-07T13:23:29;8.25;;;7.50;;
8478;SDS011;4276;49.354;6.804;2022-12-07T13:26:22;7.75;;;6.97;;
8478;SDS011;4276;49.354;6.804;2022-12-07T13:31:56;7.68;;;6.75;;
8478;SDS011;4276;49.354;6.804;2022-12-07T13:34:32;8.40;;;6.90;;
8478;SDS011;4276;49.354;6.804;2022-12-07T13:37:04;7.68;;;6.70;;
8478;SDS011;4276;49.354;6.804;2022-12-07T13:39:45;8.32;;;6.82;;
8478;SDS011;4276;49.354;6.804;2022-12-07T13:44:56;7.97;;;7.10;;
8478;SDS011;4276;49.354;6.804;2022-12-07T13:47:36;8.85;;;7.35;;
8478;SDS011;4276;49.354;6.804;2022-12-07T13:50:42;8.50;;;6.70;;
8478;SDS011;4276;49.354;6.804;2022-12-07T13:53:01;7.72;;;6.57;;
8478;SDS011;4276;49.354;6.804;2022-12-07T13:55:28;9.30;;;8.40;;
8478;SDS011;4276;49.354;6.804;2022-12-07T13:57:55;7.43;;;6.72;;
8478;SDS011;4276;49.354;6.804;2022-12-07T14:00:26;8.25;;;6.20;;
8478;SDS011;4276;49.354;6.804;2022-12-07T14:02:58;7.22;;;6.32;;
8478;SDS011;4276;49.354;6.804;2022-12-07T14:05:52;7.55;;;6.40;;
8478;SDS011;4276;49.354;6.804;2022-12-07T14:09:05;5.95;;;5.28;;
8478;SDS011;4276;49.354;6.804;2022-12-07T14:11:32;6.18;;;5.57;;
8478;SDS011;4276;49.354;6.804;2022-12-07T14:14:05;5.80;;;5.22;;
8478;SDS011;4276;49.354;6.804;2022-12-07T14:16:35;8.93;;;7.90;;
8478;SDS011;4276;49.354;6.804;2022-12-07T14:19:03;13.50;;;9.95;;
8478;SDS011;4276;49.354;6.804;2022-12-07T14:21:33;12.15;;;9.57;;
8478;SDS011;4276;49.354;6.804;2022-12-07T14:24:04;10.88;;;8.40;;
8478;SDS011;4276;49.354;6.804;2022-12-07T14:26:47;10.57;;;8.43;;
8478;SDS011;4276;49.354;6.804;2022-12-07T14:31:51;9.65;;;8.45;;
8478;SDS011;4276;49.354;6.804;2022-12-07T14:34:22;6.80;;;6.20;;
8478;SDS011;4276;49.354;6.804;2022-12-07T14:36:51;6.15;;;5.55;;
8478;SDS011;4276;49.354;6.804;2022-12-07T14:39:18;5.97;;;5.38;;
8478;SDS011;4276;49.354;6.804;2022-12-07T14:41:44;5.97;;;5.10;;
8478;SDS011;4276;49.354;6.804;2022-12-07T14:44:17;6.63;;;5.07;;
8478;SDS011;4276;49.354;6.804;2022-12-07T14:46:52;7.35;;;5.45;;
8478;SDS011;4276;49.354;6.804;2022-12-07T14:49:40;6.30;;;5.57;;
8478;SDS011;4276;49.354;6.804;2022-12-07T14:52:09;6.38;;;4.90;;
8478;SDS011;4276;49.354;6.804;2022-12-07T14:55:01;6.70;;;6.03;;
8478;SDS011;4276;49.354;6.804;2022-12-07T14:57:28;8.38;;;6.68;;
8478;SDS011;4276;49.354;6.804;2022-12-07T14:59:56;7.03;;;6.32;;
8478;SDS011;4276;49.354;6.804;2022-12-07T15:02:22;7.53;;;6.32;;
8478;SDS011;4276;49.354;6.804;2022-12-07T15:04:49;7.28;;;6.57;;
8478;SDS011;4276;49.354;6.804;2022-12-07T15:07:19;8.50;;;6.65;;
8478;SDS011;4276;49.354;6.804;2022-12-07T15:09:46;5.80;;;5.30;;
8478;SDS011;4276;49.354;6.804;2022-12-07T15:12:14;7.65;;;5.70;;
8478;SDS011;4276;49.354;6.804;2022-12-07T15:14:41;6.75;;;6.15;;
8478;SDS011;4276;49.354;6.804;2022-12-07T15:17:11;6.78;;;6.07;;
8478;SDS011;4276;49.354;6.804;2022-12-07T15:19:53;6.05;;;5.53;;
8478;SDS011;4276;49.354;6.804;2022-12-07T15:22:19;7.60;;;6.68;;
8478;SDS011;4276;49.354;6.804;2022-12-07T15:24:46;8.57;;;7.07;;
8478;SDS011;4276;49.354;6.804;2022-12-07T15:27:12;6.90;;;6.30;;
8478;SDS011;4276;49.354;6.804;2022-12-07T15:29:40;7.60;;;6.88;;
8478;SDS011;4276;49.354;6.804;2022-12-07T15:32:06;7.18;;;6.47;;
8478;SDS011;4276;49.354;6.804;2022-12-07T15:34:33;8.82;;;6.13;;
8478;SDS011;4276;49.354;6.804;2022-12-07T15:37:05;10.50;;;8.95;;
8478;SDS011;4276;49.354;6.804;2022-12-07T15:39:32;11.60;;;9.30;;
8478;SDS011;4276;49.354;6.804;2022-12-07T15:41:59;13.15;;;9.50;;
8478;SDS011;4276;49.354;6.804;2022-12-07T15:44:25;10.63;;;9.07;;
8478;SDS011;4276;49.354;6.804;2022-12-07T15:47:10;10.32;;;8.10;;
8478;SDS011;4276;49.354;6.804;2022-12-07T15:49:36;11.52;;;8.68;;
8478;SDS011;4276;49.354;6.804;2022-12-07T15:52:03;8.93;;;7.43;;
8478;SDS011;4276;49.354;6.804;2022-12-07T15:54:30;7.57;;;6.57;;
8478;SDS011;4276;49.354;6.804;2022-12-07T15:56:58;9.23;;;8.32;;
8478;SDS011;4276;49.354;6.804;2022-12-07T15:59:27;8.70;;;7.75;;
8478;SDS011;4276;49.354;6.804;2022-12-07T16:01:54;8.77;;;6.90;;
8478;SDS011;4276;49.354;6.804;2022-12-07T16:04:22;7.97;;;7.18;;
8478;SDS011;4276;49.354;6.804;2022-12-07T16:06:56;10.20;;;7.53;;
8478;SDS011;4276;49.354;6.804;2022-12-07T16:09:25;9.95;;;8.00;;
8478;SDS011;4276;49.354;6.804;2022-12-07T16:11:52;9.43;;;8.52;;
8478;SDS011;4276;49.354;6.804;2022-12-07T16:14:19;10.05;;;8.07;;
8478;SDS011;4276;49.354;6.804;2022-12-07T16:16:46;11.77;;;9.63;;
8478;SDS011;4276;49.354;6.804;2022-12-07T16:19:13;10.15;;;9.18;;
8478;SDS011;4276;49.354;6.804;2022-12-07T16:21:39;12.32;;;10.40;;
8478;SDS011;4276;49.354;6.804;2022-12-07T16:24:06;12.50;;;11.15;;
8478;SDS011;4276;49.354;6.804;2022-12-07T16:26:33;14.60;;;12.82;;
8478;SDS011;4276;49.354;6.804;2022-12-07T16:28:59;16.02;;;13.80;;
8478;SDS011;4276;49.354;6.804;2022-12-07T16:31:27;14.77;;;13.20;;
8478;SDS011;4276;49.354;6.804;2022-12-07T16:33:54;14.35;;;12.93;;
8478;SDS011;4276;49.354;6.804;2022-12-07T16:36:22;12.15;;;10.95;;
8478;SDS011;4276;49.354;6.804;2022-12-07T16:39:10;12.52;;;11.07;;
8478;SDS011;4276;49.354;6.804;2022-12-07T16:41:44;11.90;;;10.13;;
8478;SDS011;4276;49.354;6.804;2022-12-07T16:44:13;10.82;;;9.73;;
8478;SDS011;4276;49.354;6.804;2022-12-07T16:46:40;11.80;;;10.70;;
8478;SDS011;4276;49.354;6.804;2022-12-07T16:49:09;12.40;;;11.07;;
8478;SDS011;4276;49.354;6.804;2022-12-07T16:51:37;12.68;;;10.38;;
8478;SDS011;4276;49.354;6.804;2022-12-07T16:54:04;11.95;;;10.75;;
8478;SDS011;4276;49.354;6.804;2022-12-07T16:56:31;12.55;;;10.80;;
8478;SDS011;4276;49.354;6.804;2022-12-07T16:58:58;14.05;;;11.15;;
8478;SDS011;4276;49.354;6.804;2022-12-07T17:01:24;11.45;;;10.23;;
8478;SDS011;4276;49.354;6.804;2022-12-07T17:03:55;14.65;;;10.95;;
8478;SDS011;4276;49.354;6.804;2022-12-07T17:06:24;11.50;;;9.70;;
8478;SDS011;4276;49.354;6.804;2022-12-07T17:08:52;11.70;;;10.50;;
8478;SDS011;4276;49.354;6.804;2022-12-07T17:11:19;11.65;;;10.30;;
8478;SDS011;4276;49.354;6.804;2022-12-07T17:13:51;16.05;;;11.60;;
8478;SDS011;4276;49.354;6.804;2022-12-07T17:16:37;12.43;;;10.90;;
8478;SDS011;4276;49.354;6.804;2022-12-07T17:19:05;11.48;;;10.38;;
8478;SDS011;4276;49.354;6.804;2022-12-07T17:21:32;12.20;;;10.90;;
8478;SDS011;4276;49.354;6.804;2022-12-07T17:23:59;11.80;;;10.38;;
8478;SDS011;4276;49.354;6.804;2022-12-07T17:26:26;11.82;;;10.50;;
8478;SDS011;4276;49.354;6.804;2022-12-07T17:29:00;12.65;;;10.80;;